Time;durP1;ratioP1;P1;durP2;ratioP2;P2;SDS_P1;SDS_P2;PMS_P1;PMS_P2;Temp;Humidity;BMP_temperature;BMP_pressure;BME280_temperature;BME280_humidity;BME280_pressure;Samples;Min_cycle;Max_cycle;Signal;HPM_P1;HPM_P2
2022/03/08 00:00:25;;;;;;;6.43;5.18;;;;;;;3.25;51.24;100373.25;5048575;28;20070;-85
2022/03/08 00:02:51;;;;;;;7.18;4.88;;;;;;;3.24;52.08;100379.47;5023496;28;20020;-85
2022/03/08 00:05:17;;;;;;;6.78;5.10;;;;;;;3.25;51.94;100369.78;5031342;28;20032;-85
2022/03/08 00:07:45;;;;;;;6.57;5.28;;;;;;;3.28;51.59;100366.97;5032350;28;20024;-85
2022/03/08 00:10:10;;;;;;;7.63;5.00;;;;;;;3.31;52.07;100369.44;5032352;28;20032;-85
2022/03/08 00:12:36;;;;;;;6.20;5.03;;;;;;;3.31;51.38;100372.09;5030740;28;20036;-85
2022/03/08 00:15:15;;;;;;;6.53;5.38;;;;;;;3.30;52.15;100367.72;5032082;28;20429;-87
2022/03/08 00:17:40;;;;;;;;;;;;;;;3.29;52.15;100366.03;5031529;28;20032;-85
2022/03/08 00:20:07;;;;;;;8.05;5.35;;;;;;;3.26;52.11;100374.13;5031730;28;20463;-87
2022/03/08 00:22:34;;;;;;;6.03;5.10;;;;;;;3.23;51.97;100374.28;5048040;28;20025;-85
2022/03/08 00:25:03;;;;;;;8.35;4.90;;;;;;;3.21;51.87;100366.44;5031250;28;20028;-86
2022/03/08 00:27:28;;;;;;;6.75;5.65;;;;;;;3.23;52.10;100369.84;5030210;28;20107;-89
2022/03/08 00:29:54;;;;;;;7.95;5.40;;;;;;;3.19;52.00;100365.66;5031671;28;20099;-84
2022/03/08 00:32:19;;;;;;;7.05;5.25;;;;;;;3.14;52.38;100379.13;5031148;28;20037;-85
2022/03/08 00:34:45;;;;;;;5.80;4.75;;;;;;;3.16;51.57;100368.47;5047874;28;20040;-85
2022/03/08 00:37:10;;;;;;;7.07;5.20;;;;;;;3.15;52.13;100372.03;5029715;28;20515;-85
2022/03/08 00:39:36;;;;;;;7.72;5.40;;;;;;;3.13;52.36;100371.28;5031950;28;20029;-85
2022/03/08 00:42:01;;;;;;;6.78;5.40;;;;;;;3.09;51.64;100375.00;5031242;28;20028;-85
2022/03/08 00:44:26;;;;;;;6.20;5.22;;;;;;;3.12;51.22;100374.84;5031104;28;20029;-85
2022/03/08 00:46:52;;;;;;;6.63;5.05;;;;;;;3.10;51.50;100371.44;5031261;28;20041;-86
2022/03/08 00:49:17;;;;;;;6.57;5.30;;;;;;;3.07;51.83;100369.81;5049274;28;20029;-85
2022/03/08 00:51:42;;;;;;;7.68;5.93;;;;;;;3.08;52.19;100374.16;5034950;28;20119;-88
2022/03/08 00:54:08;;;;;;;6.40;5.15;;;;;;;3.06;52.23;100362.81;5035608;28;20033;-84
2022/03/08 00:56:34;;;;;;;5.90;5.03;;;;;;;3.11;52.51;100365.22;5034973;28;20028;-85
2022/03/08 00:58:59;;;;;;;6.68;5.65;;;;;;;3.10;52.24;100366.16;5035125;28;20052;-85
2022/03/08 01:01:24;;;;;;;6.88;5.20;;;;;;;3.06;52.49;100368.09;5051641;28;20037;-85
2022/03/08 01:03:50;;;;;;;6.30;5.60;;;;;;;3.04;52.75;100362.03;5035416;28;20089;-85
2022/03/08 01:06:15;;;;;;;6.88;5.45;;;;;;;3.09;52.59;100369.72;5034609;28;20032;-86
2022/03/08 01:08:40;;;;;;;7.57;5.38;;;;;;;3.02;52.77;100363.06;5034980;28;20089;-86
2022/03/08 01:11:06;;;;;;;7.88;5.75;;;;;;;2.99;52.22;100360.59;5034837;28;20090;-86
2022/03/08 01:13:31;;;;;;;6.28;5.28;;;;;;;2.98;52.41;100350.94;5035468;28;20028;-84
2022/03/08 01:15:57;;;;;;;7.72;5.70;;;;;;;2.93;53.27;100353.84;5051180;28;20032;-85
2022/03/08 01:18:22;;;;;;;6.28;5.28;;;;;;;2.89;53.05;100356.72;5035427;28;20029;-84
2022/03/08 01:20:47;;;;;;;6.85;5.45;;;;;;;2.88;53.00;100349.72;5051178;28;20040;-85
2022/03/08 01:23:13;;;;;;;7.57;5.68;;;;;;;2.83;53.39;100355.22;5034366;28;20044;-85
2022/03/08 01:25:40;;;;;;;9.48;5.97;;;;;;;2.89;53.34;100357.56;5034886;28;20085;-85
2022/03/08 01:28:06;;;;;;;6.35;5.28;;;;;;;2.86;54.39;100351.59;5034255;28;20040;-86
2022/03/08 01:30:32;;;;;;;7.88;5.32;;;;;;;2.81;53.73;100349.16;5044407;28;20068;-85
2022/03/08 01:32:58;;;;;;;10.73;6.20;;;;;;;2.83;53.65;100347.28;5034918;28;20079;-86
2022/03/08 01:35:24;;;;;;;7.47;5.35;;;;;;;2.82;54.29;100345.59;5034970;28;20032;-85
2022/03/08 01:37:49;;;;;;;7.63;5.65;;;;;;;2.82;54.05;100337.66;5033976;28;20389;-85
2022/03/08 01:40:15;;;;;;;6.72;5.55;;;;;;;2.80;53.88;100331.63;5051333;28;20039;-85
2022/03/08 01:42:49;;;;;;;8.55;6.00;;;;;;;2.80;53.97;100340.38;5027503;28;20120;-85
2022/03/08 01:45:17;;;;;;;9.48;5.82;;;;;;;2.79;53.79;100343.09;5034489;28;20029;-85
2022/03/08 01:47:43;;;;;;;7.93;6.22;;;;;;;2.80;53.76;100340.38;5035145;28;20115;-85
2022/03/08 01:50:10;;;;;;;8.82;6.18;;;;;;;2.78;53.44;100336.13;5051653;28;20111;-88
2022/03/08 01:52:37;;;;;;;9.00;6.18;;;;;;;2.79;54.27;100328.13;5033567;28;20028;-86
2022/03/08 01:55:03;;;;;;;8.10;6.07;;;;;;;2.72;54.12;100332.00;5033973;28;20032;-85
2022/03/08 01:57:28;;;;;;;7.30;5.95;;;;;;;2.76;54.58;100324.78;5034296;28;20028;-85
2022/03/08 01:59:54;;;;;;;7.70;6.07;;;;;;;2.74;54.57;100316.94;5035275;28;20042;-86
2022/03/08 02:02:30;;;;;;;8.85;6.40;;;;;;;2.72;54.58;100324.09;5034513;28;20055;-84
2022/03/08 02:04:55;;;;;;;9.10;5.80;;;;;;;2.70;54.64;100310.13;5026430;28;20082;-86
2022/03/08 02:07:21;;;;;;;8.35;5.93;;;;;;;2.76;54.47;100309.78;5051380;28;20032;-89
2022/03/08 02:09:46;;;;;;;8.43;6.07;;;;;;;2.76;55.54;100301.03;5035318;28;20119;-85
2022/03/08 02:12:11;;;;;;;10.07;5.85;;;;;;;2.79;55.46;100306.13;5034587;28;20064;-92
2022/03/08 02:14:37;;;;;;;8.30;6.20;;;;;;;2.76;54.76;100291.31;5035005;28;20111;-85
2022/03/08 02:17:03;;;;;;;7.82;6.25;;;;;;;2.64;55.36;100291.09;5034807;28;20036;-86
2022/03/08 02:19:28;;;;;;;8.13;6.03;;;;;;;2.61;55.27;100291.25;5034205;28;20029;-85
2022/03/08 02:21:55;;;;;;;8.82;6.18;;;;;;;2.51;55.32;100294.38;5034461;28;20082;-86
2022/03/08 02:24:20;;;;;;;7.40;6.03;;;;;;;2.41;55.62;100287.03;5028679;28;20607;-88
2022/03/08 02:26:46;;;;;;;9.18;6.85;;;;;;;2.38;55.84;100292.47;5035071;28;20028;-86
2022/03/08 02:29:11;;;;;;;8.15;6.15;;;;;;;2.40;55.68;100286.16;5051670;28;20052;-85
2022/03/08 02:31:36;;;;;;;6.93;5.80;;;;;;;2.49;56.06;100280.41;5052233;28;20033;-85
2022/03/08 02:34:03;;;;;;;8.07;6.38;;;;;;;2.44;55.69;100287.72;5034962;28;20481;-88
2022/03/08 02:36:28;;;;;;;8.93;6.22;;;;;;;2.47;55.80;100281.44;5036384;28;20044;-85
2022/03/08 02:38:53;;;;;;;9.60;6.72;;;;;;;2.42;55.87;100280.81;5052163;28;20032;-91
2022/03/08 02:41:19;;;;;;;9.02;6.38;;;;;;;2.39;56.16;100289.75;5052349;28;20093;-85
2022/03/08 02:43:44;;;;;;;7.72;6.00;;;;;;;2.43;56.29;100290.44;5052832;28;20036;-91
2022/03/08 02:46:09;;;;;;;8.95;6.00;;;;;;;2.41;55.85;100285.22;5035598;28;20036;-85
2022/03/08 02:48:35;;;;;;;9.18;6.25;;;;;;;2.47;56.52;100281.44;5034521;28;20029;-87
2022/03/08 02:51:00;;;;;;;8.32;5.90;;;;;;;2.47;56.09;100273.50;5035239;28;20032;-85
2022/03/08 02:53:26;;;;;;;10.27;6.70;;;;;;;2.43;56.13;100278.09;5031536;28;20025;-87
2022/03/08 02:55:51;;;;;;;8.95;5.75;;;;;;;2.51;56.58;100281.19;5032299;28;20547;-84
2022/03/08 02:58:17;;;;;;;8.27;6.45;;;;;;;2.42;56.11;100283.44;5033261;28;20075;-85
2022/03/08 03:00:42;;;;;;;8.23;6.50;;;;;;;2.49;56.80;100279.56;5033090;28;20020;-85
2022/03/08 03:03:08;;;;;;;8.85;6.28;;;;;;;2.52;56.47;100282.03;5032203;28;20086;-90
2022/03/08 03:05:34;;;;;;;11.02;5.90;;;;;;;2.43;55.67;100279.88;5032460;28;20035;-85
2022/03/08 03:08:00;;;;;;;8.85;6.75;;;;;;;2.44;55.53;100281.59;5031400;28;20025;-85
2022/03/08 03:10:26;;;;;;;9.35;6.53;;;;;;;2.51;55.77;100272.41;5032970;28;20021;-85
2022/03/08 03:13:25;;;;;;;9.00;6.20;;;;;;;2.49;55.66;100263.72;5048687;28;20033;-86
2022/03/08 03:15:50;;;;;;;9.70;6.50;;;;;;;2.49;55.78;100261.94;5031758;28;20101;-85
2022/03/08 03:18:16;;;;;;;7.75;5.97;;;;;;;2.48;56.07;100252.31;5032144;28;20465;-88
2022/03/08 03:20:41;;;;;;;8.88;6.50;;;;;;;2.43;55.74;100246.44;5033080;28;20029;-86
2022/03/08 03:23:06;;;;;;;9.50;6.38;;;;;;;2.50;55.94;100247.81;5032352;28;20131;-90
2022/03/08 03:25:32;;;;;;;8.25;6.35;;;;;;;2.45;55.92;100243.72;5032460;28;20044;-85
2022/03/08 03:27:57;;;;;;;8.00;6.13;;;;;;;2.35;55.68;100239.81;5032726;28;20527;-89
2022/03/08 03:30:23;;;;;;;10.10;6.80;;;;;;;2.39;55.99;100225.56;5031585;28;20071;-85
2022/03/08 03:32:48;;;;;;;10.27;6.72;;;;;;;2.40;56.65;100216.72;5049628;28;20047;-87
2022/03/08 03:35:14;;;;;;;9.38;6.75;;;;;;;2.41;57.03;100213.97;5031442;28;20093;-87
2022/03/08 03:37:39;;;;;;;8.88;6.60;;;;;;;2.44;56.71;100205.91;5024377;28;20075;-85
2022/03/08 03:40:06;;;;;;;11.07;6.85;;;;;;;2.40;56.60;100199.09;5032182;28;20051;-85
2022/03/08 03:42:31;;;;;;;11.40;7.20;;;;;;;2.41;56.31;100192.03;5047510;28;20437;-86
2022/03/08 03:44:57;;;;;;;13.27;6.30;;;;;;;2.43;56.52;100198.06;5030595;28;20025;-85
2022/03/08 03:47:22;;;;;;;12.85;6.85;;;;;;;2.44;55.89;100197.13;5031062;28;20032;-85
2022/03/08 03:49:47;;;;;;;10.82;6.43;;;;;;;2.43;55.71;100188.38;5032279;28;20074;-85
2022/03/08 03:52:13;;;;;;;8.95;6.07;;;;;;;2.45;55.87;100185.66;5048503;28;20466;-85
2022/03/08 03:54:38;;;;;;;8.82;5.70;;;;;;;2.42;56.02;100184.03;5032133;28;20052;-85
2022/03/08 03:57:03;;;;;;;9.57;6.50;;;;;;;2.41;56.02;100187.59;5032517;28;20067;-85
2022/03/08 03:59:29;;;;;;;9.15;5.95;;;;;;;2.40;56.22;100180.63;5030780;28;20076;-85
2022/03/08 04:01:54;;;;;;;8.43;5.68;;;;;;;2.39;56.03;100178.91;5031005;28;20024;-85
2022/03/08 04:04:19;;;;;;;8.57;5.78;;;;;;;2.40;55.66;100180.63;5031960;28;20032;-88
2022/03/08 04:06:45;;;;;;;9.25;6.03;;;;;;;2.40;55.28;100171.84;5032659;28;20082;-85
2022/03/08 04:09:10;;;;;;;7.05;5.45;;;;;;;2.39;55.12;100178.91;5031734;28;20150;-85
2022/03/08 04:11:36;;;;;;;6.13;4.75;;;;;;;2.43;54.33;100175.19;5048686;28;20558;-86
2022/03/08 04:14:01;;;;;;;8.23;5.18;;;;;;;2.46;55.14;100188.22;5032013;28;20028;-87
2022/03/08 04:16:27;;;;;;;7.60;5.07;;;;;;;2.44;54.16;100182.16;5047836;28;20430;-85
2022/03/08 04:18:52;;;;;;;6.45;4.95;;;;;;;2.45;54.58;100183.00;5049648;28;20029;-85
2022/03/08 04:21:18;;;;;;;6.75;5.82;;;;;;;2.43;55.02;100191.00;5030976;28;20119;-88
2022/03/08 04:23:43;;;;;;;7.22;5.78;;;;;;;2.36;54.94;100183.47;5031515;28;20093;-87
2022/03/08 04:26:08;;;;;;;8.27;5.60;;;;;;;2.36;55.21;100186.09;5031820;28;20028;-86
2022/03/08 04:28:34;;;;;;;9.02;5.40;;;;;;;2.35;56.05;100184.41;5032452;28;20067;-90
2022/03/08 04:30:59;;;;;;;8.60;5.85;;;;;;;2.35;55.42;100190.53;5031093;28;20043;-85
2022/03/08 04:33:25;;;;;;;8.27;6.25;;;;;;;2.34;55.97;100193.25;5032586;28;20051;-87
2022/03/08 04:35:50;;;;;;;9.25;5.38;;;;;;;2.34;55.66;100193.25;5031500;28;20895;-86
2022/03/08 04:38:15;;;;;;;7.90;5.82;;;;;;;2.28;55.60;100198.84;5033044;28;20055;-86
2022/03/08 04:40:41;;;;;;;7.55;5.53;;;;;;;2.31;55.68;100190.78;5032669;28;20604;-85
2022/03/08 04:43:06;;;;;;;10.70;5.90;;;;;;;2.33;55.57;100189.75;5032192;28;20024;-85
2022/03/08 04:45:32;;;;;;;8.23;6.20;;;;;;;2.33;55.73;100184.47;5031409;28;20615;-84
2022/03/08 04:47:57;;;;;;;10.05;6.45;;;;;;;2.32;56.43;100187.19;5048787;28;20055;-85
2022/03/08 04:50:23;;;;;;;8.23;5.63;;;;;;;2.30;55.53;100181.16;5032262;28;20094;-86
2022/03/08 04:52:48;;;;;;;8.27;5.57;;;;;;;2.28;56.44;100175.97;5049450;28;20047;-85
2022/03/08 04:55:15;;;;;;;8.80;6.03;;;;;;;2.26;56.15;100179.59;5031650;28;20047;-85
2022/03/08 04:57:41;;;;;;;7.20;5.50;;;;;;;2.23;56.45;100175.34;5049440;28;20063;-88
2022/03/08 05:00:08;;;;;;;7.60;5.68;;;;;;;2.24;55.89;100173.56;5049231;28;20385;-84
2022/03/08 05:02:34;;;;;;;7.68;5.70;;;;;;;2.18;56.08;100182.66;5031499;28;20029;-85
2022/03/08 05:04:59;;;;;;;6.63;4.95;;;;;;;2.18;56.61;100186.13;5031034;28;20422;-85
2022/03/08 05:07:24;;;;;;;7.43;5.05;;;;;;;2.26;55.64;100195.44;5032682;28;20087;-85
2022/03/08 05:09:50;;;;;;;8.38;5.18;;;;;;;2.30;55.91;100194.34;5032178;28;20044;-85
2022/03/08 05:12:15;;;;;;;5.68;4.38;;;;;;;2.29;55.06;100193.50;5031931;28;20052;-85
2022/03/08 05:14:41;;;;;;;7.25;4.72;;;;;;;2.26;54.78;100188.38;5024090;28;20028;-85
2022/03/08 05:17:06;;;;;;;7.88;4.63;;;;;;;2.22;54.52;100192.09;5031519;28;20032;-86
2022/03/08 05:19:32;;;;;;;6.47;4.97;;;;;;;2.19;54.86;100187.84;5033086;28;20024;-90
2022/03/08 05:21:59;;;;;;;5.97;4.95;;;;;;;2.17;54.94;100186.22;5032932;28;20104;-86
2022/03/08 05:24:24;;;;;;;6.53;5.20;;;;;;;2.11;54.66;100183.91;5032211;28;20047;-84
2022/03/08 05:26:50;;;;;;;7.85;4.93;;;;;;;2.16;54.97;100184.50;5031704;28;20397;-85
2022/03/08 05:29:15;;;;;;;5.53;4.75;;;;;;;2.18;54.96;100180.88;5033000;28;20056;-85
2022/03/08 05:31:41;;;;;;;6.97;4.43;;;;;;;2.11;54.86;100176.00;5048946;28;20055;-85
2022/03/08 05:34:06;;;;;;;5.90;4.63;;;;;;;2.06;54.92;100170.94;5044959;28;20033;-86
2022/03/08 05:36:33;;;;;;;6.85;5.00;;;;;;;2.12;55.59;100170.63;5035448;28;20093;-85
2022/03/08 05:38:58;;;;;;;7.32;5.22;;;;;;;2.12;55.80;100177.69;5035078;28;20025;-85
2022/03/08 05:41:23;;;;;;;6.97;5.05;;;;;;;2.06;54.58;100170.94;5034437;28;20146;-86
2022/03/08 05:43:49;;;;;;;5.80;4.10;;;;;;;2.27;55.06;100181.31;5049980;28;20060;-85
2022/03/08 05:46:14;;;;;;;6.82;5.13;;;;;;;2.18;54.33;100182.66;5034439;28;20037;-87
2022/03/08 05:48:39;;;;;;;7.20;5.05;;;;;;;2.13;54.21;100182.88;5033958;28;20028;-86
2022/03/08 05:51:05;;;;;;;7.97;5.47;;;;;;;2.10;54.18;100175.13;5032791;28;20030;-87
2022/03/08 05:53:31;;;;;;;6.22;4.95;;;;;;;2.09;54.92;100172.56;5034815;28;20158;-88
2022/03/08 05:55:56;;;;;;;7.80;5.40;;;;;;;2.05;55.08;100179.78;5032773;28;20115;-86
2022/03/08 05:58:22;;;;;;;6.18;5.03;;;;;;;2.04;54.84;100180.72;5034181;28;20157;-87
2022/03/08 06:00:47;;;;;;;8.88;5.50;;;;;;;2.05;55.03;100174.53;5033290;28;20085;-91
2022/03/08 06:03:13;;;;;;;6.03;4.72;;;;;;;2.07;54.83;100175.28;5033516;28;20029;-85
2022/03/08 06:05:38;;;;;;;6.93;4.53;;;;;;;2.18;54.79;100175.59;5033390;28;20025;-86
2022/03/08 06:08:04;;;;;;;5.95;4.70;;;;;;;2.18;53.82;100170.31;5034807;28;20401;-87
2022/03/08 06:10:30;;;;;;;6.97;5.05;;;;;;;2.19;54.33;100173.81;5034334;28;20037;-88
2022/03/08 06:12:56;;;;;;;6.28;4.28;;;;;;;2.24;53.90;100176.19;5035024;28;20027;-86
2022/03/08 06:15:21;;;;;;;5.25;4.05;;;;;;;2.18;53.81;100180.88;5041113;28;20091;-85
2022/03/08 06:17:46;;;;;;;4.82;4.18;;;;;;;2.34;53.75;100177.41;5050409;28;20027;-85
2022/03/08 06:20:12;;;;;;;7.63;4.30;;;;;;;2.55;53.08;100186.00;5050181;28;20082;-86
2022/03/08 06:22:39;;;;;;;9.50;8.48;;;;;;;2.59;52.95;100180.47;5034656;28;20029;-84
2022/03/08 06:25:05;;;;;;;4.72;3.97;;;;;;;2.70;53.17;100183.41;5033480;28;20094;-87
2022/03/08 06:27:30;;;;;;;6.70;4.32;;;;;;;2.83;54.84;100173.88;5034232;28;20036;-89
2022/03/08 06:29:56;;;;;;;6.10;4.10;;;;;;;3.01;56.13;100171.19;5050511;28;20115;-85
2022/03/08 06:32:21;;;;;;;6.60;4.30;;;;;;;2.99;54.10;100175.69;5031018;28;20024;-87
2022/03/08 06:34:47;;;;;;;5.03;4.05;;;;;;;2.75;52.68;100181.34;5049360;28;20558;-85
2022/03/08 06:37:13;;;;;;;4.43;3.55;;;;;;;2.64;52.52;100189.00;5032243;28;21066;-85
2022/03/08 06:39:39;;;;;;;7.25;4.13;;;;;;;2.55;51.57;100181.59;5032075;28;20020;-86
2022/03/08 06:42:04;;;;;;;4.40;3.85;;;;;;;2.49;51.48;100187.19;5034379;28;20120;-87
2022/03/08 06:44:31;;;;;;;8.25;4.38;;;;;;;2.42;51.15;100185.81;5033928;28;20035;-84
2022/03/08 06:46:57;;;;;;;5.97;4.47;;;;;;;2.45;51.77;100196.22;5049724;28;20028;-85
2022/03/08 06:49:23;;;;;;;5.85;4.45;;;;;;;2.47;51.32;100202.25;5041416;28;20032;-85
2022/03/08 06:51:48;;;;;;;7.53;4.70;;;;;;;2.47;51.81;100194.34;5032271;28;20093;-86
2022/03/08 06:54:13;;;;;;;4.75;4.00;;;;;;;2.48;51.30;100196.91;5032744;28;20032;-85
2022/03/08 06:56:39;;;;;;;6.60;4.20;;;;;;;2.51;51.28;100187.97;5049938;28;20154;-86
2022/03/08 06:59:04;;;;;;;6.20;4.22;;;;;;;2.47;51.17;100192.56;5032598;28;20109;-85
2022/03/08 07:01:30;;;;;;;6.28;4.53;;;;;;;2.57;52.58;100192.91;5032784;28;20055;-85
2022/03/08 07:03:55;;;;;;;10.95;5.75;;;;;;;2.51;53.03;100199.38;5049817;28;20048;-89
2022/03/08 07:06:21;;;;;;;8.27;5.43;;;;;;;2.41;53.46;100199.94;5031861;28;20028;-86
2022/03/08 07:08:46;;;;;;;9.68;5.25;;;;;;;2.41;54.22;100206.06;5049133;28;20547;-85
2022/03/08 07:11:11;;;;;;;7.22;5.30;;;;;;;2.43;54.54;100211.28;5048314;28;20032;-85
2022/03/08 07:13:40;;;;;;;10.68;6.13;;;;;;;2.39;55.24;100207.94;5030603;28;20382;-86
2022/03/08 07:16:05;;;;;;;8.80;5.72;;;;;;;2.43;55.61;100212.13;5029038;28;20121;-89
2022/03/08 07:18:31;;;;;;;9.65;5.93;;;;;;;2.40;55.47;100207.00;5031808;28;20488;-89
2022/03/08 07:20:56;;;;;;;8.18;5.88;;;;;;;2.46;55.65;100217.22;5030773;28;20035;-85
2022/03/08 07:23:22;;;;;;;7.38;5.18;;;;;;;2.50;55.88;100210.00;5030505;28;20043;-84
2022/03/08 07:25:48;;;;;;;8.35;5.70;;;;;;;2.55;56.33;100218.53;5029190;28;20071;-86
2022/03/08 07:28:13;;;;;;;7.75;5.90;;;;;;;2.42;55.37;100223.59;5031396;28;20024;-86
2022/03/08 07:30:38;;;;;;;8.15;5.93;;;;;;;2.50;55.77;100217.94;5032610;28;20039;-85
2022/03/08 07:33:03;;;;;;;7.93;5.80;;;;;;;2.46;55.95;100219.03;5031775;28;20040;-86
2022/03/08 07:35:29;;;;;;;7.53;5.53;;;;;;;2.47;56.21;100212.81;5031313;28;20068;-87
2022/03/08 07:37:54;;;;;;;9.50;5.88;;;;;;;2.48;55.41;100214.50;5049821;28;20040;-85
2022/03/08 07:40:20;;;;;;;6.40;5.28;;;;;;;2.47;56.20;100195.19;5030685;28;20032;-86
2022/03/08 07:42:48;;;;;;;7.40;5.40;;;;;;;2.54;55.09;100203.63;5030433;28;20107;-87
2022/03/08 07:45:14;;;;;;;6.10;4.80;;;;;;;2.80;56.16;100195.16;5041285;28;20485;-85
2022/03/08 07:47:39;;;;;;;5.13;4.63;;;;;;;3.24;58.68;100180.44;5031711;28;20043;-85
2022/03/08 07:50:06;;;;;;;7.20;5.00;;;;;;;3.60;59.30;100196.88;5031731;28;20622;-85
2022/03/08 07:52:31;;;;;;;5.35;4.45;;;;;;;3.69;59.07;100187.56;5031497;28;20040;-86
2022/03/08 07:54:56;;;;;;;5.68;4.22;;;;;;;3.92;59.85;100191.53;5031232;28;20033;-86
2022/03/08 07:57:22;;;;;;;5.63;4.40;;;;;;;3.81;57.79;100188.66;5031064;28;20036;-86
2022/03/08 07:59:47;;;;;;;5.35;4.45;;;;;;;3.79;56.95;100191.41;5030354;28;20393;-86
2022/03/08 08:02:13;;;;;;;5.75;4.32;;;;;;;3.95;60.09;100189.56;5032756;28;20074;-85
2022/03/08 08:04:38;;;;;;;7.85;4.80;;;;;;;4.18;61.55;100187.34;5031243;28;20035;-87
2022/03/08 08:07:04;;;;;;;5.82;4.35;;;;;;;3.98;58.96;100191.16;5030190;28;20029;-86
2022/03/08 08:09:29;;;;;;;5.07;4.20;;;;;;;3.92;58.87;100204.75;5031156;28;20036;-85
2022/03/08 08:11:55;;;;;;;7.85;4.50;;;;;;;3.81;58.39;100193.97;5031727;28;20031;-86
2022/03/08 08:14:20;;;;;;;5.25;4.63;;;;;;;4.06;60.77;100208.28;5032163;28;20040;-89
2022/03/08 08:16:46;;;;;;;4.70;4.20;;;;;;;3.96;59.01;100201.84;5032945;28;20031;-86
2022/03/08 08:19:11;;;;;;;4.90;4.10;;;;;;;4.01;59.72;100214.81;5032222;28;20412;-85
2022/03/08 08:21:37;;;;;;;6.20;4.68;;;;;;;3.92;57.97;100210.91;5031232;28;20052;-87
2022/03/08 08:24:03;;;;;;;4.93;4.13;;;;;;;4.15;61.48;100219.28;5030586;28;20129;-85
2022/03/08 08:26:28;;;;;;;7.78;4.72;;;;;;;4.00;58.18;100211.31;5031096;28;20493;-90
2022/03/08 08:28:54;;;;;;;4.78;4.28;;;;;;;4.17;59.66;100215.59;5032820;28;20028;-85
2022/03/08 08:31:20;;;;;;;6.13;4.22;;;;;;;4.04;57.59;100210.19;5031403;28;20051;-90
2022/03/08 08:33:45;;;;;;;5.13;4.35;;;;;;;4.14;59.68;100207.84;5032458;28;20052;-88
2022/03/08 08:36:10;;;;;;;7.57;4.38;;;;;;;4.04;58.47;100207.53;5027065;28;20033;-87
2022/03/08 08:38:36;;;;;;;5.38;4.30;;;;;;;4.08;59.69;100201.13;5032479;28;20035;-85
2022/03/08 08:41:01;;;;;;;5.43;4.38;;;;;;;4.00;57.38;100190.13;5032528;28;20051;-85
2022/03/08 08:43:26;;;;;;;5.55;4.38;;;;;;;4.14;57.39;100204.34;5032135;28;20397;-86
2022/03/08 08:45:52;;;;;;;6.28;4.25;;;;;;;3.93;55.83;100194.09;5033800;28;20040;-85
2022/03/08 08:48:19;;;;;;;4.30;3.55;;;;;;;4.07;58.12;100203.84;5033486;28;20060;-87
2022/03/08 08:50:45;;;;;;;5.47;3.80;;;;;;;4.15;57.53;100195.47;5031373;28;20032;-85
2022/03/08 08:53:10;;;;;;;4.25;3.60;;;;;;;4.20;58.71;100199.53;5031273;28;20035;-86
2022/03/08 08:55:37;;;;;;;4.72;4.22;;;;;;;4.37;59.73;100194.09;5031910;28;20043;-85
2022/03/08 08:58:05;;;;;;;4.55;3.95;;;;;;;4.36;59.37;100196.84;5032467;28;20605;-86
2022/03/08 09:00:31;;;;;;;5.80;4.32;;;;;;;4.43;59.92;100188.44;5032269;28;20082;-86
2022/03/08 09:02:57;;;;;;;4.45;3.90;;;;;;;4.48;59.05;100190.78;5031208;28;20498;-85
2022/03/08 09:05:22;;;;;;;5.28;3.97;;;;;;;4.55;58.35;100176.22;5030467;28;20020;-89
2022/03/08 09:07:48;;;;;;;4.88;4.20;;;;;;;4.59;60.27;100182.19;5031857;28;20036;-86
2022/03/08 09:10:15;;;;;;;5.38;4.35;;;;;;;4.48;57.08;100190.78;5016280;28;20076;-87
2022/03/08 09:12:43;;;;;;;4.55;4.15;;;;;;;4.35;57.74;100190.69;5051724;28;20470;-85
2022/03/08 09:15:08;;;;;;;4.50;4.10;;;;;;;4.32;56.45;100190.88;5034741;28;20482;-85
2022/03/08 09:17:34;;;;;;;5.13;4.10;;;;;;;4.23;54.34;100187.91;5051106;28;20028;-85
2022/03/08 09:19:59;;;;;;;4.05;3.65;;;;;;;4.32;57.70;100190.88;5052032;28;20043;-87
2022/03/08 09:22:25;;;;;;;4.68;4.20;;;;;;;4.26;55.70;100185.09;5069913;28;20531;-85
2022/03/08 09:24:50;;;;;;;4.85;3.65;;;;;;;4.40;58.08;100179.81;5032501;28;20067;-85
2022/03/08 09:27:16;;;;;;;5.13;4.05;;;;;;;4.34;56.96;100182.84;5032099;28;20167;-86
2022/03/08 09:29:41;;;;;;;6.20;4.07;;;;;;;4.35;54.54;100195.13;5049437;28;20028;-87
2022/03/08 09:32:07;;;;;;;5.50;4.00;;;;;;;4.18;53.86;100188.19;5032292;28;20044;-88
2022/03/08 09:34:32;;;;;;;4.65;3.88;;;;;;;4.24;55.11;100186.97;5032786;28;20028;-85
2022/03/08 09:36:58;;;;;;;4.53;3.60;;;;;;;4.20;54.52;100188.94;5034027;28;20993;-86
2022/03/08 09:39:23;;;;;;;5.20;4.03;;;;;;;4.16;53.64;100191.88;5050186;28;20032;-85
2022/03/08 09:41:52;;;;;;;4.18;3.75;;;;;;;4.24;55.44;100185.16;5032398;28;20020;-85
2022/03/08 09:44:17;;;;;;;5.10;4.03;;;;;;;4.36;55.94;100188.91;5034988;28;20119;-89
2022/03/08 09:46:43;;;;;;;6.72;3.83;;;;;;;4.31;56.18;100189.19;5035477;28;20166;-85
2022/03/08 09:49:08;;;;;;;4.10;3.72;;;;;;;4.32;56.16;100187.38;5035168;28;20487;-86
2022/03/08 09:51:37;;;;;;;5.22;3.97;;;;;;;4.56;58.07;100191.16;5034609;28;20595;-86
2022/03/08 09:54:04;;;;;;;4.63;3.67;;;;;;;4.65;59.39;100173.84;5051609;28;20028;-85
2022/03/08 09:56:29;;;;;;;5.15;4.03;;;;;;;4.58;58.78;100185.78;5035363;28;20063;-88
2022/03/08 09:58:55;;;;;;;4.70;3.90;;;;;;;4.51;55.58;100184.47;5035108;28;20556;-85
2022/03/08 10:01:20;;;;;;;5.40;4.25;;;;;;;4.52;57.12;100173.78;5034023;28;20035;-87
2022/03/08 10:03:49;;;;;;;4.47;3.67;;;;;;;4.43;57.16;100180.50;5034339;28;20025;-87
2022/03/08 10:06:14;;;;;;;6.28;4.00;;;;;;;4.59;59.66;100177.75;5033336;28;20039;-87
2022/03/08 10:08:39;;;;;;;4.88;3.80;;;;;;;4.79;60.22;100167.72;5034707;28;20119;-85
2022/03/08 10:11:09;;;;;;;4.22;3.63;;;;;;;4.60;55.94;100168.84;5050665;28;20142;-85
2022/03/08 10:13:55;;;;;;;4.18;3.50;;;;;;;4.63;59.82;100166.00;5025818;28;20078;-87
2022/03/08 10:16:28;;;;;;;3.97;3.53;;;;;;;4.68;58.81;100155.97;5034933;28;20190;-85
2022/03/08 10:18:56;;;;;;;5.72;4.03;;;;;;;4.85;59.72;100160.25;5026753;28;20114;-85
2022/03/08 10:21:32;;;;;;;6.33;3.83;;;;;;;4.81;56.67;100166.69;5032365;28;20032;-86
2022/03/08 10:24:21;;;;;;;4.63;3.40;;;;;;;4.91;58.83;100161.66;5033805;28;20032;-86
2022/03/08 10:26:57;;;;;;;4.35;3.55;;;;;;;5.04;60.88;100154.63;5022262;28;20041;-86
2022/03/08 10:29:27;;;;;;;4.63;3.40;;;;;;;5.04;60.00;100162.56;5049144;28;20041;-85
2022/03/08 10:32:07;;;;;;;4.55;3.70;;;;;;;5.06;59.70;100150.06;5032792;28;20531;-86
2022/03/08 10:34:33;;;;;;;4.32;3.92;;;;;;;5.04;59.44;100157.28;5050764;28;20024;-85
2022/03/08 10:37:00;;;;;;;4.63;3.70;;;;;;;5.01;58.65;100152.16;5049627;28;20086;-85
2022/03/08 10:39:25;;;;;;;4.68;3.90;;;;;;;4.88;56.31;100152.09;5031988;28;20035;-88
2022/03/08 10:41:56;;;;;;;5.05;4.00;;;;;;;4.70;53.38;100150.59;5032094;28;20024;-86
2022/03/08 10:44:34;;;;;;;5.32;3.60;;;;;;;4.78;56.71;100152.78;5030528;28;20032;-83
2022/03/08 10:47:02;;;;;;;4.18;3.78;;;;;;;4.92;58.20;100139.50;5031595;28;20036;-87
2022/03/08 10:49:27;;;;;;;4.18;3.70;;;;;;;4.87;56.42;100141.59;5031194;28;20130;-88
2022/03/08 10:52:09;;;;;;;4.30;3.67;;;;;;;5.01;57.83;100133.63;5030833;28;20133;-87
2022/03/08 10:54:34;;;;;;;4.43;3.53;;;;;;;5.05;58.89;100135.97;5025939;28;20032;-88
2022/03/08 10:57:00;;;;;;;5.00;3.92;;;;;;;5.20;57.96;100130.63;5032711;28;20032;-88
2022/03/08 10:59:25;;;;;;;6.57;4.07;;;;;;;5.16;58.26;100127.31;5031459;28;20040;-88
2022/03/08 11:01:51;;;;;;;5.38;3.60;;;;;;;5.20;58.87;100133.28;5032044;28;20052;-87
2022/03/08 11:04:22;;;;;;;4.65;3.80;;;;;;;5.11;56.67;100132.06;5033074;28;20029;-87
2022/03/08 11:06:50;;;;;;;5.32;3.55;;;;;;;5.19;57.03;100140.38;5030776;28;20036;-87
2022/03/08 11:09:17;;;;;;;4.78;3.95;;;;;;;5.14;57.88;100131.03;5049025;28;20029;-88
2022/03/08 11:11:43;;;;;;;5.07;4.00;;;;;;;5.13;56.92;100127.53;5032413;28;20044;-88
2022/03/08 11:14:09;;;;;;;4.20;3.80;;;;;;;5.22;57.86;100128.75;5032404;28;20089;-87
2022/03/08 11:16:35;;;;;;;5.28;3.97;;;;;;;5.21;58.45;100135.00;5030467;28;20443;-87
2022/03/08 11:19:01;;;;;;;4.72;3.83;;;;;;;5.22;57.40;100121.66;5032396;28;20032;-87
2022/03/08 11:21:26;;;;;;;4.80;3.80;;;;;;;5.25;58.09;100120.59;5031411;28;20479;-87
2022/03/08 11:23:52;;;;;;;5.40;4.20;;;;;;;5.34;58.92;100127.94;5031539;28;20020;-88
2022/03/08 11:26:18;;;;;;;6.07;3.88;;;;;;;5.22;58.98;100124.31;5031920;28;20028;-88
2022/03/08 11:28:45;;;;;;;5.13;4.05;;;;;;;5.21;58.52;100117.31;5031277;28;20063;-88